Chadstone Weather > Observations for 07/04/21

Select Day:



Observations
Time Temp Hum DP Wind Gust Dir Rain >9am Press
C % C kph kph mm hPa
00:00 15.4 89 13.6 0.7 7.2 ESE 0.0 1009.2
00:10 15.4 90 13.8 1.5 6.1 SSE 0.0 1009.2
00:20 15.5 90 13.9 0.6 6.1 S 0.0 1009.6
00:30 15.5 90 13.9 1.3 6.1 SSE 0.0 1008.8
00:40 15.6 90 14.0 0.2 5.0 S 0.0 1008.6
00:50 15.7 91 14.2 0.3 5.0 SSE 0.0 1009.2
01:00 15.8 91 14.3 1.1 9.7 SSE 0.0 1008.8
01:10 15.8 91 14.3 1.0 6.1 SSE 0.0 1008.7
01:20 15.8 91 14.3 1.4 6.1 SSE 0.0 1009.5
01:30 15.8 91 14.3 0.4 5.0 SSE 0.0 1008.0
01:40 15.8 91 14.3 1.4 7.2 SSE 0.0 1008.2
01:50 15.8 91 14.3 0.2 3.6 SSW 0.0 1008.8
02:00 15.8 91 14.3 0.0 3.6 S 0.0 1007.9
02:10 15.8 91 14.3 1.3 6.1 SSE 0.0 1007.8
02:20 15.8 91 14.3 1.9 9.7 SSE 0.0 1008.4
02:30 15.9 91 14.4 0.3 3.6 SE 0.0 1007.6
02:40 15.9 91 14.4 3.2 11.2 SSE 0.0 1008.4
02:50 15.8 91 14.3 5.5 12.2 SE 0.0 1008.2
03:00 15.7 90 14.1 6.0 12.2 SSE 0.0 1007.8
03:10 15.7 90 14.1 3.5 11.2 SSE 0.0 1007.7
03:20 15.7 90 14.1 2.9 11.2 SE 0.0 1007.7
03:30 15.6 90 14.0 4.0 8.6 S 0.0 1007.6
03:40 15.6 90 14.0 2.9 7.2 SE 0.0 1007.5
03:50 15.5 90 13.9 4.4 12.2 SSE 0.0 1007.6
04:00 15.5 90 13.9 3.7 11.2 SE 0.0 1007.5
04:10 15.4 91 13.9 3.3 9.7 SE 0.0 1007.5
04:20 15.4 91 13.9 3.2 8.6 SE 0.0 1007.4
04:30 15.4 91 13.9 2.1 7.2 SSE 0.0 1007.4
04:40 15.4 91 13.9 2.3 6.1 SE 0.0 1007.4
04:50 15.4 91 13.9 3.2 9.7 SE 0.0 1007.6
05:00 15.4 91 13.9 2.8 9.7 SSE 0.0 1007.6
05:10 15.3 91 13.8 2.0 7.2 S 0.0 1007.5
05:20 15.3 91 13.8 1.5 6.1 SSE 0.0 1007.5
05:30 15.4 91 13.9 0.6 5.0 SSE 0.0 1007.5
05:40 15.4 91 13.9 0.2 5.0 SE 0.0 1007.5
05:50 15.4 91 13.9 0.0 1.1 SSE 0.0 1007.4
06:00 15.5 91 14.0 0.9 5.0 S 0.0 1007.5
06:10 15.5 91 14.0 0.0 2.5 NNE 0.0 1007.5
06:20 15.5 91 14.0 0.0 1.1 NE 0.0 1007.5
06:30 15.6 91 14.1 0.0 1.1 SSE 0.0 1007.4
06:40 15.7 91 14.2 0.0 0.0 N 0.0 1007.5
06:50 15.7 91 14.2 0.4 3.6 NE 0.0 1007.5
07:00 15.7 90 14.1 1.7 7.2 NNE 0.0 1007.6
07:10 15.7 90 14.1 1.6 7.2 NNE 0.0 1007.6
07:20 15.7 90 14.1 0.6 5.0 N 0.0 1007.6
07:30 15.8 90 14.2 2.8 7.2 NNE 0.0 1007.7
07:40 15.8 90 14.2 1.4 5.0 NNE 0.0 1007.7
07:50 15.8 89 14.0 0.5 3.6 N 0.0 1007.7
08:00 15.9 89 14.1 1.8 5.0 ENE 0.0 1007.8
08:10 16.0 88 14.0 1.3 7.2 NE 0.0 1007.8
08:20 16.0 88 14.0 0.6 5.0 NNW 0.0 1007.9
08:30 16.1 87 13.9 0.9 5.0 ENE 0.0 1007.8
08:40 16.1 87 13.9 1.9 7.2 NNE 0.0 1008.0
08:50 16.1 87 13.9 2.0 7.2 ENE 0.0 1008.0
09:00 16.2 87 14.0 0.4 3.6 N 0.0 1007.9
09:10 16.3 87 14.1 0.6 6.1 NNE 0.0 1008.3
09:20 16.5 87 14.3 0.7 5.0 E 0.0 1008.3
09:30 16.6 86 14.3 0.1 2.5 NW 0.0 1008.2
09:40 16.7 86 14.4 1.1 5.0 ENE 0.0 1008.3
09:50 16.9 86 14.6 2.5 6.1 ESE 0.0 1008.3
10:00 17.0 84 14.3 1.7 7.2 NW 0.0 1008.2
10:10 17.0 84 14.3 1.8 7.2 NNW 0.0 1008.1
10:20 17.0 84 14.3 2.2 9.7 N 0.0 1008.0
10:30 17.3 84 14.6 1.7 8.6 NNW 0.0 1007.9
10:40 17.6 83 14.7 2.6 8.6 N 0.0 1007.8
10:50 17.9 83 15.0 0.4 3.6 NNW 0.0 1007.6
11:00 18.1 83 15.2 3.0 9.7 NE 0.0 1007.6
11:10 18.4 82 15.3 1.5 6.1 NNE 0.0 1007.4
11:20 18.6 82 15.5 2.2 6.1 NW 0.0 1007.3
11:30 19.1 80 15.6 2.2 6.1 NW 0.0 1007.1
11:40 19.3 78 15.4 1.6 6.1 N 0.0 1007.0
11:50 19.5 78 15.6 2.7 7.2 NNW 0.0 1006.8
12:00 20.0 76 15.7 2.5 6.1 WNW 0.0 1006.6
12:10 20.2 76 15.8 1.6 6.1 NW 0.0 1006.4
12:20 20.4 74 15.6 3.1 8.6 NW 0.0 1006.3
12:30 20.7 74 15.9 2.3 8.6 NNW 0.0 1006.1
12:40 21.0 72 15.8 1.3 5.0 NW 0.0 1005.8
12:50 21.2 72 16.0 0.6 5.0 W 0.0 1005.7
13:00 21.6 72 16.4 2.4 6.1 W 0.0 1005.4
13:10 21.7 71 16.2 1.8 7.2 WSW 0.0 1005.1
13:20 22.0 70 16.3 0.6 5.0 SSE 0.0 1004.7
13:30 22.4 68 16.2 1.3 5.0 N 0.0 1004.5
13:40 22.6 68 16.4 0.8 6.1 S 0.0 1004.3
13:50 22.9 67 16.5 1.1 6.1 WSW 0.0 1004.3
14:00 22.9 66 16.2 1.0 8.6 SW 0.0 1004.0
14:10 22.7 66 16.0 2.5 11.2 S 0.0 1003.8
14:20 22.6 67 16.2 0.9 6.1 SW 0.0 1003.9
14:30 22.6 66 15.9 0.7 5.0 SSW 0.0 1003.8
14:40 22.6 66 15.9 0.5 5.0 S 0.0 1003.9
14:50 22.7 66 16.0 0.5 5.0 WSW 0.0 1003.9
15:00 22.7 65 15.8 1.4 9.7 S 0.0 1003.8
15:10 22.6 66 15.9 3.3 11.2 SSW 0.0 1003.7
15:20 22.4 66 15.8 1.8 12.2 SSW 0.0 1003.6
15:30 22.4 67 16.0 1.0 12.2 SSW 0.0 1003.4
15:40 22.6 67 16.2 0.9 9.7 S 0.0 1003.3
15:50 22.7 67 16.3 0.3 5.0 SSW 0.0 1003.1
16:00 22.8 67 16.4 3.3 12.2 S 0.0 1002.9
16:10 22.7 67 16.3 3.1 11.2 S 0.0 1002.9
16:20 22.5 67 16.1 3.1 9.7 S 0.0 1002.8
16:30 22.3 68 16.1 0.8 11.2 SSE 0.0 1002.8
16:40 22.3 69 16.4 2.7 9.7 SSE 0.0 1002.7
16:50 22.1 69 16.2 2.1 8.6 S 0.0 1002.8
17:00 21.9 71 16.4 1.3 11.2 S 0.0 1002.7
17:10 21.7 72 16.4 0.0 3.6 S 0.0 1002.7
17:20 21.4 73 16.4 0.0 3.6 SSW 0.0 1002.8
17:30 21.0 74 16.2 0.5 6.1 SSW 0.0 1002.8
17:40 20.8 75 16.2 0.1 6.1 SW 0.0 1003.0
17:50 20.5 76 16.1 0.4 5.0 SSE 0.0 1003.0
18:00 20.4 77 16.2 0.7 6.1 SSE 0.0 1002.9
18:10 20.2 78 16.3 0.8 6.1 SE 0.0 1003.0
18:20 20.0 79 16.3 0.0 2.5 SW 0.0 1002.9
18:30 19.8 81 16.5 0.0 3.6 S 0.0 1002.7
18:40 19.6 83 16.6 0.0 1.1 S 0.0 1002.6
18:50 19.4 84 16.6 0.0 0.0 N 0.0 1002.5
19:00 19.3 85 16.7 0.0 0.0 N 0.0 1002.4
19:10 19.1 85 16.5 0.0 0.0 N 0.0 1002.4
19:20 18.9 86 16.5 0.0 0.0 N 0.0 1002.4
19:30 18.9 87 16.7 0.0 0.0 N 0.0 1002.5
19:40 18.8 87 16.6 0.0 0.0 N 0.0 1002.3
19:50 18.7 88 16.7 0.0 0.0 N 0.0 1002.3
20:00 18.6 88 16.6 0.0 0.0 N 0.0 1002.4
20:10 18.5 88 16.5 0.0 0.0 N 0.0 1002.5
20:20 18.4 89 16.6 0.0 0.0 N 0.0 1002.7
20:30 18.3 89 16.5 0.0 0.0 N 0.0 1002.9
20:40 18.3 90 16.6 0.0 0.0 N 0.0 1002.9
20:50 18.2 90 16.5 0.0 0.0 N 0.0 1002.9
21:00 18.2 90 16.5 0.0 0.0 N 0.0 1002.9
21:10 18.1 91 16.6 0.0 0.0 N 0.0 1002.9
21:20 18.0 91 16.5 0.0 0.0 N 0.0 1002.9
21:30 17.9 91 16.4 0.0 0.0 N 0.0 1002.9
21:40 17.9 91 16.4 0.0 0.0 N 0.0 1004.3
21:50 18.0 92 16.7 0.0 0.0 N 0.0 1004.3
22:00 18.0 92 16.7 0.0 0.0 N 0.0 1004.2
22:10 18.0 92 16.7 0.0 0.0 N 0.0 1004.1
22:20 17.9 91 16.4 0.0 0.0 N 0.0 1004.1
22:30 17.6 91 16.1 0.0 0.0 N 0.0 1004.1
22:40 17.6 91 16.1 0.0 0.0 N 0.0 1004.2
22:50 17.7 92 16.4 0.0 0.0 N 0.0 1004.2
23:00 17.8 92 16.5 0.0 0.0 N 0.0 1004.1
23:10 18.1 93 17.0 0.0 0.0 N 0.0 1004.1
23:20 18.3 93 17.2 0.0 0.0 N 0.0 1004.0
23:30 18.5 94 17.5 0.0 0.0 N 0.0 1003.7
23:40 18.6 94 17.6 0.0 0.0 N 0.0 1004.0
23:50 18.5 93 17.4 0.0 0.0 N 0.0 1002.5